Time;durP1;ratioP1;P1;durP2;ratioP2;P2;SDS_P1;SDS_P2;PMS_P1;PMS_P2;Temp;Humidity;BMP_temperature;BMP_pressure;BME280_temperature;BME280_humidity;BME280_pressure;Samples;Min_cycle;Max_cycle;Signal;HPM_P1;HPM_P2
2021/11/26 00:01:00;;;;;;;48.17;35.53;;;1.70;99.90;;;;;;4985041;28;20901;-76
2021/11/26 00:03:27;;;;;;;49.77;35.03;;;1.80;99.90;;;;;;5002838;28;20894;-76
2021/11/26 00:05:53;;;;;;;57.03;39.27;;;1.70;99.90;;;;;;5003864;28;20457;-76
2021/11/26 00:08:20;;;;;;;56.83;37.63;;;1.70;99.90;;;;;;4991139;28;20452;-77
2021/11/26 00:10:48;;;;;;;53.63;37.90;;;1.70;99.90;;;;;;4969796;28;20441;-77
2021/11/26 00:13:16;;;;;;;51.60;35.40;;;1.80;99.90;;;;;;4981052;28;20469;-77
2021/11/26 00:15:44;;;;;;;49.27;36.27;;;1.80;99.90;;;;;;4973318;28;21149;-76
2021/11/26 00:18:17;;;;;;;49.00;36.47;;;1.80;99.90;;;;;;4982674;28;20507;-76
2021/11/26 00:20:44;;;;;;;52.90;36.60;;;1.80;99.90;;;;;;4987384;28;20929;-76
2021/11/26 00:23:12;;;;;;;56.33;37.63;;;1.80;99.90;;;;;;4979887;28;20887;-76
2021/11/26 00:25:39;;;;;;;50.20;35.90;;;1.80;99.90;;;;;;4982035;28;20448;-76
2021/11/26 00:28:07;;;;;;;50.67;35.93;;;1.70;99.90;;;;;;4985437;28;21003;-76
2021/11/26 00:30:34;;;;;;;54.70;36.37;;;1.70;99.90;;;;;;4989677;28;20438;-77
2021/11/26 00:33:01;;;;;;;51.77;35.63;;;1.70;99.90;;;;;;5000129;28;20475;-76
2021/11/26 00:35:29;;;;;;;57.50;39.43;;;1.70;99.90;;;;;;4971581;28;20994;-76
2021/11/26 00:37:56;;;;;;;50.03;36.17;;;1.70;99.90;;;;;;4986534;28;20463;-76
2021/11/26 00:40:23;;;;;;;53.10;36.50;;;1.70;99.90;;;;;;4993358;28;20458;-76
2021/11/26 00:42:49;;;;;;;50.40;35.80;;;1.70;99.90;;;;;;4991003;28;20973;-76
2021/11/26 00:45:18;;;;;;;50.77;36.17;;;1.70;99.90;;;;;;4989836;28;20445;-76
2021/11/26 00:47:45;;;;;;;46.73;33.40;;;1.70;99.90;;;;;;4987556;28;20476;-76
2021/11/26 00:50:15;;;;;;;50.73;36.50;;;1.70;99.90;;;;;;5006954;28;20465;-76
2021/11/26 00:52:42;;;;;;;45.53;35.23;;;1.70;99.90;;;;;;4991849;28;21032;-77
2021/11/26 00:55:10;;;;;;;56.50;37.00;;;1.70;99.90;;;;;;4988021;28;20461;-76
2021/11/26 00:57:37;;;;;;;55.60;38.17;;;1.70;99.90;;;;;;4990980;28;20800;-77
2021/11/26 01:00:06;;;;;;;51.73;35.33;;;1.70;99.90;;;;;;4991446;28;20864;-77
2021/11/26 01:02:35;;;;;;;53.87;36.60;;;1.70;99.90;;;;;;4988558;28;20488;-76
2021/11/26 01:05:02;;;;;;;52.90;37.50;;;1.60;99.90;;;;;;5002902;28;20457;-77
2021/11/26 01:07:28;;;;;;;55.43;36.83;;;1.70;99.90;;;;;;4983238;28;21014;-77
2021/11/26 01:09:55;;;;;;;51.73;35.37;;;1.70;99.90;;;;;;5006101;28;20538;-76
2021/11/26 01:12:22;;;;;;;49.37;34.93;;;1.70;99.90;;;;;;4990883;28;20509;-76
2021/11/26 01:14:49;;;;;;;49.03;36.33;;;1.70;99.90;;;;;;5006789;28;20451;-76
2021/11/26 01:17:16;;;;;;;52.43;36.37;;;1.70;99.90;;;;;;4993814;28;20445;-76
2021/11/26 01:19:45;;;;;;;49.53;35.60;;;1.60;99.90;;;;;;5004628;28;20496;-76
2021/11/26 01:22:12;;;;;;;50.23;37.37;;;1.70;99.90;;;;;;4988406;28;20490;-76
2021/11/26 01:24:39;;;;;;;53.60;36.07;;;1.70;99.90;;;;;;4988171;28;20447;-76
2021/11/26 01:27:07;;;;;;;52.13;35.20;;;1.70;99.90;;;;;;4987339;28;20501;-76
2021/11/26 01:29:34;;;;;;;53.30;36.97;;;1.70;99.90;;;;;;4991501;28;20869;-77
2021/11/26 01:32:01;;;;;;;52.13;35.07;;;1.70;99.90;;;;;;4987902;28;20455;-76
2021/11/26 01:34:28;;;;;;;49.67;35.63;;;1.70;99.90;;;;;;4978849;28;20437;-76
2021/11/26 01:36:56;;;;;;;50.40;36.53;;;1.70;99.90;;;;;;4990788;28;20494;-76
2021/11/26 01:39:24;;;;;;;46.50;34.27;;;1.70;99.90;;;;;;4989892;28;20492;-76
2021/11/26 01:41:52;;;;;;;45.67;33.30;;;1.80;99.90;;;;;;4989385;28;20475;-76
2021/11/26 01:44:20;;;;;;;48.40;34.90;;;1.70;99.90;;;;;;4988594;28;20439;-76
2021/11/26 01:46:47;;;;;;;45.40;35.57;;;1.70;99.90;;;;;;4990449;28;20942;-76
2021/11/26 01:49:15;;;;;;;49.67;34.93;;;1.70;99.90;;;;;;4991591;28;20847;-76
2021/11/26 01:51:42;;;;;;;52.33;38.17;;;1.70;99.90;;;;;;4987326;28;20494;-76
2021/11/26 01:54:10;;;;;;;56.10;37.30;;;1.80;99.90;;;;;;4992284;28;20988;-76
2021/11/26 01:56:38;;;;;;;55.20;36.77;;;1.70;99.90;;;;;;4988403;28;20516;-76
2021/11/26 01:59:05;;;;;;;54.17;36.50;;;1.80;99.90;;;;;;4988966;28;20509;-76
2021/11/26 02:01:32;;;;;;;50.40;37.53;;;1.80;99.90;;;;;;4988725;28;20480;-76
2021/11/26 02:03:59;;;;;;;52.90;35.53;;;1.80;99.90;;;;;;4987071;28;20524;-77
2021/11/26 02:06:26;;;;;;;53.90;36.37;;;1.80;99.90;;;;;;4992105;28;20433;-76
2021/11/26 02:08:53;;;;;;;50.13;36.67;;;1.80;99.90;;;;;;4988995;28;20508;-76
2021/11/26 02:11:21;;;;;;;52.57;36.53;;;1.80;99.90;;;;;;5002379;28;20505;-77
2021/11/26 02:13:48;;;;;;;55.40;38.83;;;1.80;99.90;;;;;;4990906;28;20466;-76
2021/11/26 02:16:15;;;;;;;62.93;40.20;;;1.80;99.90;;;;;;4989897;28;20446;-77
2021/11/26 02:18:42;;;;;;;56.93;38.47;;;1.80;99.90;;;;;;4989560;28;20437;-77
2021/11/26 02:21:10;;;;;;;55.00;36.97;;;1.80;99.90;;;;;;4989114;28;20473;-77
2021/11/26 02:23:37;;;;;;;52.60;37.10;;;1.70;99.90;;;;;;5007718;28;20466;-76
2021/11/26 02:26:04;;;;;;;56.67;39.10;;;1.80;99.90;;;;;;4991085;28;20440;-77
2021/11/26 02:28:31;;;;;;;53.97;35.93;;;1.80;99.90;;;;;;5002625;28;20443;-76
2021/11/26 02:30:58;;;;;;;62.47;40.23;;;1.80;99.90;;;;;;5002467;28;20495;-76
2021/11/26 02:33:24;;;;;;;56.57;37.17;;;1.80;99.90;;;;;;5001200;28;20535;-76
2021/11/26 02:35:53;;;;;;;60.63;39.70;;;1.80;99.90;;;;;;4990675;28;20491;-76
2021/11/26 02:38:23;;;;;;;69.57;42.27;;;1.80;99.90;;;;;;4989422;28;20431;-76
2021/11/26 02:40:51;;;;;;;61.33;40.20;;;1.90;99.90;;;;;;4991156;28;20440;-77
2021/11/26 02:43:18;;;;;;;63.27;40.53;;;1.80;99.90;;;;;;4992513;28;20459;-76
2021/11/26 02:45:46;;;;;;;63.90;41.57;;;1.80;99.90;;;;;;5003972;28;20454;-77
2021/11/26 02:48:14;;;;;;;65.60;40.63;;;1.90;99.90;;;;;;4988278;28;20453;-76
2021/11/26 02:50:42;;;;;;;63.70;40.33;;;1.90;99.90;;;;;;4987720;28;20443;-77
2021/11/26 02:53:09;;;;;;;70.50;40.53;;;1.80;99.90;;;;;;4985315;28;20892;-76
2021/11/26 02:55:39;;;;;;;66.17;41.13;;;1.80;99.90;;;;;;5021299;28;20447;-76
2021/11/26 02:58:06;;;;;;;68.20;41.07;;;1.80;99.90;;;;;;4990688;28;20439;-76
2021/11/26 03:00:34;;;;;;;68.30;41.37;;;1.80;99.90;;;;;;4994460;28;20503;-76
2021/11/26 03:03:01;;;;;;;68.97;40.93;;;1.90;99.90;;;;;;4999852;28;20912;-77
2021/11/26 03:05:28;;;;;;;70.73;40.57;;;1.80;99.90;;;;;;4985650;28;20935;-76
2021/11/26 03:07:55;;;;;;;68.13;41.00;;;1.90;99.90;;;;;;5002546;28;20464;-77
2021/11/26 03:10:23;;;;;;;65.53;39.77;;;1.90;99.90;;;;;;4986932;28;20877;-76
2021/11/26 03:12:53;;;;;;;60.17;37.77;;;1.80;99.90;;;;;;5004565;28;20816;-77
2021/11/26 03:15:21;;;;;;;67.97;40.50;;;1.90;99.90;;;;;;4991866;28;20496;-76
2021/11/26 03:17:48;;;;;;;63.37;40.37;;;1.90;99.90;;;;;;4980401;28;20454;-76
2021/11/26 03:20:15;;;;;;;61.67;41.43;;;1.90;99.90;;;;;;4983575;28;20441;-76
2021/11/26 03:22:42;;;;;;;62.83;39.83;;;1.90;99.90;;;;;;4984771;28;20538;-77
2021/11/26 03:25:10;;;;;;;66.03;39.13;;;1.80;99.90;;;;;;4976139;28;20444;-77
2021/11/26 03:27:38;;;;;;;67.00;39.47;;;1.80;99.90;;;;;;4973759;28;20433;-76
2021/11/26 03:30:08;;;;;;;65.87;40.57;;;1.80;99.90;;;;;;4982025;28;20899;-77
2021/11/26 03:32:35;;;;;;;64.33;41.90;;;1.80;99.90;;;;;;5018364;28;20471;-77
2021/11/26 03:35:01;;;;;;;70.23;41.70;;;1.80;99.90;;;;;;5001597;28;20553;-77
2021/11/26 03:37:28;;;;;;;69.57;41.23;;;1.80;99.90;;;;;;4985441;28;20802;-77
2021/11/26 03:39:55;;;;;;;66.23;40.87;;;1.80;99.90;;;;;;4987449;28;20443;-77
2021/11/26 03:42:22;;;;;;;69.40;41.30;;;1.90;99.90;;;;;;4988659;28;20565;-79
2021/11/26 03:44:49;;;;;;;68.23;40.30;;;1.90;99.90;;;;;;4998428;28;20454;-76
2021/11/26 03:47:17;;;;;;;66.90;39.30;;;1.90;99.90;;;;;;4975732;28;20456;-75
2021/11/26 03:49:44;;;;;;;62.20;38.40;;;1.90;99.90;;;;;;4988231;28;20517;-76
2021/11/26 03:52:10;;;;;;;61.63;38.47;;;1.90;99.90;;;;;;4971099;28;20825;-75
2021/11/26 03:54:38;;;;;;;65.80;40.60;;;1.90;99.90;;;;;;4971632;28;20460;-75
2021/11/26 03:57:05;;;;;;;71.63;41.23;;;1.80;99.90;;;;;;4971836;28;20442;-75
2021/11/26 03:59:32;;;;;;;68.27;42.10;;;1.80;99.90;;;;;;4976194;28;20437;-75
2021/11/26 04:01:59;;;;;;;69.50;41.33;;;1.80;99.90;;;;;;4975934;28;20545;-76
2021/11/26 04:04:28;;;;;;;67.33;40.80;;;1.90;99.90;;;;;;4977093;28;20884;-75
2021/11/26 04:06:55;;;;;;;66.20;39.90;;;1.90;99.90;;;;;;4975958;28;20444;-76
2021/11/26 04:09:21;;;;;;;59.50;38.57;;;1.90;99.90;;;;;;4978091;28;20961;-75
2021/11/26 04:11:48;;;;;;;67.60;42.83;;;1.90;99.90;;;;;;4976230;28;20494;-75
2021/11/26 04:14:15;;;;;;;68.07;40.10;;;1.80;99.90;;;;;;4977823;28;20465;-76
2021/11/26 04:16:42;;;;;;;64.53;38.40;;;1.80;99.90;;;;;;4976263;28;20442;-76
2021/11/26 04:19:08;;;;;;;70.83;39.87;;;1.80;99.90;;;;;;4998998;28;20463;-76
2021/11/26 04:21:37;;;;;;;56.40;37.60;;;1.80;99.90;;;;;;4991672;28;20448;-75
2021/11/26 04:24:06;;;;;;;64.43;40.07;;;1.90;99.90;;;;;;4990691;28;20447;-76
2021/11/26 04:26:33;;;;;;;66.53;40.67;;;1.80;99.90;;;;;;5009636;28;20983;-76
2021/11/26 04:29:00;;;;;;;66.17;40.53;;;1.80;99.90;;;;;;4992943;28;20445;-76
2021/11/26 04:31:27;;;;;;;73.37;41.27;;;1.80;99.90;;;;;;4987816;28;20435;-76
2021/11/26 04:33:54;;;;;;;70.43;40.37;;;1.90;99.90;;;;;;4987169;28;20460;-76
2021/11/26 04:36:21;;;;;;;67.77;38.93;;;1.90;99.90;;;;;;4988136;28;20493;-76
2021/11/26 04:38:49;;;;;;;69.80;41.40;;;1.90;99.90;;;;;;5005329;28;20460;-75
2021/11/26 04:41:16;;;;;;;70.67;42.10;;;1.80;99.90;;;;;;5004946;28;20505;-75
2021/11/26 04:43:43;;;;;;;70.63;41.83;;;1.80;99.90;;;;;;4992395;28;20508;-76
2021/11/26 04:46:10;;;;;;;66.20;40.97;;;1.80;99.90;;;;;;4991652;28;21040;-75
2021/11/26 04:48:37;;;;;;;72.00;41.50;;;1.90;99.90;;;;;;4989077;28;20446;-76
2021/11/26 04:51:03;;;;;;;70.23;40.30;;;1.80;99.90;;;;;;4988168;28;20950;-76
2021/11/26 04:53:30;;;;;;;69.80;41.07;;;1.80;99.90;;;;;;4991442;28;20477;-76
2021/11/26 04:55:59;;;;;;;68.53;40.67;;;1.80;99.90;;;;;;5006002;28;20452;-75
2021/11/26 04:58:25;;;;;;;73.27;42.90;;;1.80;99.90;;;;;;5004417;28;20894;-76
2021/11/26 05:00:52;;;;;;;76.57;41.73;;;1.80;99.90;;;;;;4989397;28;20996;-76
2021/11/26 05:03:20;;;;;;;65.67;39.03;;;1.80;99.90;;;;;;4990966;28;20483;-76
2021/11/26 05:05:47;;;;;;;81.10;42.90;;;1.90;99.90;;;;;;4988708;28;20431;-76
2021/11/26 05:08:16;;;;;;;68.27;40.53;;;1.90;99.90;;;;;;4992820;28;20462;-76
2021/11/26 05:10:50;;;;;;;63.50;40.57;;;1.90;99.90;;;;;;5005971;28;20441;-76
2021/11/26 05:13:18;;;;;;;64.50;38.10;;;2.00;99.90;;;;;;4988393;28;20472;-75
2021/11/26 05:15:45;;;;;;;62.50;39.23;;;2.00;99.90;;;;;;5004224;28;20447;-76
2021/11/26 05:18:12;;;;;;;67.30;39.80;;;1.90;99.90;;;;;;4988707;28;20783;-76
2021/11/26 05:20:39;;;;;;;68.50;41.73;;;1.90;99.90;;;;;;5006794;28;20494;-76
2021/11/26 05:23:06;;;;;;;67.23;41.57;;;1.90;99.90;;;;;;4991530;28;20849;-76
2021/11/26 05:25:32;;;;;;;75.77;41.53;;;1.90;99.90;;;;;;4986772;28;20445;-76
2021/11/26 05:28:00;;;;;;;65.97;41.20;;;1.90;99.90;;;;;;4987215;28;20936;-76
2021/11/26 05:30:28;;;;;;;67.83;41.67;;;1.90;99.90;;;;;;5005886;28;20460;-76
2021/11/26 05:32:55;;;;;;;71.97;40.40;;;1.90;99.90;;;;;;4990555;28;20460;-76
2021/11/26 05:35:22;;;;;;;65.23;40.23;;;1.90;99.90;;;;;;4988355;28;20457;-76
2021/11/26 05:37:49;;;;;;;68.53;39.00;;;1.90;99.90;;;;;;4990871;28;20512;-76
2021/11/26 05:40:16;;;;;;;67.63;42.77;;;2.00;99.90;;;;;;4992703;28;20435;-75
2021/11/26 05:42:44;;;;;;;75.50;41.83;;;2.00;99.90;;;;;;4987128;28;20486;-75
2021/11/26 05:45:13;;;;;;;71.03;42.73;;;1.90;99.90;;;;;;4986978;28;20956;-76
2021/11/26 05:47:41;;;;;;;72.23;43.23;;;1.90;99.90;;;;;;4985308;28;20968;-76
2021/11/26 05:50:13;;;;;;;71.63;42.93;;;1.90;99.90;;;;;;5007138;28;20514;-75
2021/11/26 05:52:41;;;;;;;70.67;42.37;;;1.90;99.90;;;;;;4990037;28;20512;-76
2021/11/26 05:55:10;;;;;;;73.10;42.63;;;2.00;99.90;;;;;;5004803;28;20517;-75
2021/11/26 05:57:39;;;;;;;65.97;41.43;;;2.00;99.90;;;;;;4991523;28;20443;-76
2021/11/26 06:00:09;;;;;;;66.73;40.27;;;2.00;99.90;;;;;;4988316;28;20451;-76
2021/11/26 06:02:35;;;;;;;60.27;38.63;;;2.00;99.90;;;;;;4989162;28;20995;-76
2021/11/26 06:05:04;;;;;;;71.77;41.87;;;2.00;99.90;;;;;;4976954;28;20477;-75
2021/11/26 06:07:32;;;;;;;67.33;40.93;;;2.00;99.90;;;;;;4976052;28;20810;-75
2021/11/26 06:09:59;;;;;;;68.70;41.07;;;1.90;99.90;;;;;;4977603;28;20950;-77
2021/11/26 06:12:26;;;;;;;74.20;42.47;;;1.90;99.90;;;;;;4988987;28;21057;-75
2021/11/26 06:14:54;;;;;;;68.60;41.90;;;1.90;99.90;;;;;;4987969;28;20877;-75
2021/11/26 06:17:21;;;;;;;65.30;40.17;;;1.90;99.90;;;;;;4981180;28;20446;-75
2021/11/26 06:19:48;;;;;;;66.60;39.57;;;1.90;99.90;;;;;;4981489;28;20992;-76
2021/11/26 06:22:16;;;;;;;61.37;39.53;;;1.90;99.90;;;;;;4991194;28;20503;-76
2021/11/26 06:24:43;;;;;;;75.07;42.73;;;1.90;99.90;;;;;;4973911;28;20496;-77
2021/11/26 06:27:10;;;;;;;70.13;40.10;;;1.90;99.90;;;;;;4973501;28;20474;-75
2021/11/26 06:29:37;;;;;;;73.07;42.17;;;1.90;99.90;;;;;;5004925;28;20971;-75
2021/11/26 06:32:04;;;;;;;73.30;43.00;;;1.90;99.90;;;;;;4973375;28;21001;-76
2021/11/26 06:34:31;;;;;;;64.07;38.93;;;1.90;99.90;;;;;;5011652;28;20533;-77
2021/11/26 06:36:57;;;;;;;61.83;38.93;;;2.00;99.90;;;;;;4986018;28;21049;-75
2021/11/26 06:39:26;;;;;;;69.03;40.33;;;2.00;99.90;;;;;;4989606;28;20453;-75
2021/11/26 06:41:53;;;;;;;68.90;40.43;;;2.00;99.90;;;;;;4981876;28;20893;-75
2021/11/26 06:44:20;;;;;;;76.40;40.50;;;2.00;99.90;;;;;;4989486;28;20490;-76
2021/11/26 06:46:47;;;;;;;64.37;39.20;;;1.90;99.90;;;;;;4997075;28;20487;-76
2021/11/26 06:49:14;;;;;;;70.97;41.73;;;2.00;99.90;;;;;;5007604;28;20447;-76
2021/11/26 06:51:41;;;;;;;68.37;40.97;;;2.00;99.90;;;;;;5002187;28;20541;-75
2021/11/26 06:54:08;;;;;;;68.97;39.73;;;2.00;99.90;;;;;;4990102;28;20511;-76
2021/11/26 06:56:37;;;;;;;63.50;40.00;;;2.00;99.90;;;;;;4987719;28;20438;-76
2021/11/26 06:59:04;;;;;;;70.43;41.17;;;2.00;99.90;;;;;;4999009;28;20460;-76
2021/11/26 07:01:32;;;;;;;75.53;40.43;;;2.00;99.90;;;;;;4989166;28;20454;-76
2021/11/26 07:04:00;;;;;;;68.17;39.80;;;2.00;99.90;;;;;;4972861;28;21008;-75
2021/11/26 07:06:27;;;;;;;82.97;43.67;;;2.00;99.90;;;;;;4971634;28;20475;-76
2021/11/26 07:08:54;;;;;;;78.33;42.17;;;1.90;99.90;;;;;;4987678;28;20472;-75
2021/11/26 07:11:21;;;;;;;75.80;43.27;;;1.90;99.90;;;;;;4972554;28;20943;-75
2021/11/26 07:13:50;;;;;;;76.30;41.63;;;2.00;99.90;;;;;;4984764;28;20469;-75
2021/11/26 07:16:18;;;;;;;77.93;41.67;;;2.00;99.90;;;;;;5004135;28;20502;-76
2021/11/26 07:18:45;;;;;;;73.17;41.80;;;1.90;99.90;;;;;;4985171;28;20526;-75
2021/11/26 07:21:12;;;;;;;83.23;41.73;;;1.90;99.90;;;;;;5004638;28;20459;-75
2021/11/26 07:23:40;;;;;;;78.53;42.33;;;1.90;99.90;;;;;;4989968;28;20516;-75
2021/11/26 07:26:07;;;;;;;82.17;44.97;;;1.90;99.90;;;;;;4987732;28;20550;-75
2021/11/26 07:28:34;;;;;;;93.80;46.03;;;1.90;99.90;;;;;;4984906;28;20440;-75
2021/11/26 07:31:03;;;;;;;89.13;44.40;;;1.80;99.90;;;;;;4987828;28;20456;-75
2021/11/26 07:33:30;;;;;;;76.13;43.63;;;1.80;99.90;;;;;;5004847;28;20565;-75
2021/11/26 07:35:57;;;;;;;78.37;44.00;;;1.80;99.90;;;;;;4981118;28;21010;-75
2021/11/26 07:38:24;;;;;;;80.50;43.50;;;1.90;99.90;;;;;;4987699;28;21022;-75
2021/11/26 07:40:53;;;;;;;89.23;46.50;;;1.90;99.90;;;;;;4988162;28;20455;-76
2021/11/26 07:43:20;;;;;;;84.03;46.37;;;1.90;99.90;;;;;;4996143;28;20484;-75
2021/11/26 07:45:47;;;;;;;73.50;42.87;;;1.90;99.90;;;;;;4998486;28;20516;-75
2021/11/26 07:48:16;;;;;;;78.93;42.97;;;1.90;99.90;;;;;;4990386;28;20461;-77
2021/11/26 07:50:43;;;;;;;78.63;45.57;;;2.00;99.90;;;;;;4985267;28;20485;-80
2021/11/26 07:53:11;;;;;;;79.07;40.77;;;2.00;99.90;;;;;;4997245;28;20472;-76
2021/11/26 07:55:38;;;;;;;75.77;42.50;;;2.00;99.90;;;;;;4987090;28;20831;-76
2021/11/26 07:58:07;;;;;;;77.00;41.33;;;2.00;99.90;;;;;;4981616;28;20449;-76
2021/11/26 08:00:34;;;;;;;81.03;43.30;;;1.90;99.90;;;;;;4990463;28;20436;-76
2021/11/26 08:03:02;;;;;;;79.03;43.53;;;2.00;99.90;;;;;;4982332;28;20572;-76
2021/11/26 08:05:31;;;;;;;80.50;44.23;;;2.00;99.90;;;;;;4999154;28;20509;-76
2021/11/26 08:07:58;;;;;;;83.20;43.73;;;2.10;99.90;;;;;;4982110;28;20461;-76
2021/11/26 08:10:25;;;;;;;75.20;43.97;;;2.10;99.90;;;;;;4984838;28;20432;-76
2021/11/26 08:12:52;;;;;;;87.37;43.50;;;2.10;99.90;;;;;;4985377;28;20468;-76
2021/11/26 08:15:21;;;;;;;74.97;43.17;;;2.00;99.90;;;;;;5003661;28;20456;-76
2021/11/26 08:17:49;;;;;;;75.00;42.00;;;2.10;99.90;;;;;;5001087;28;20822;-76
2021/11/26 08:20:17;;;;;;;67.47;40.97;;;2.00;99.90;;;;;;5004720;28;21031;-76
2021/11/26 08:22:47;;;;;;;72.00;39.73;;;2.00;99.90;;;;;;4988106;28;20590;-77
2021/11/26 08:25:15;;;;;;;69.63;40.47;;;2.10;99.90;;;;;;4986504;28;20441;-76
2021/11/26 08:27:42;;;;;;;73.57;40.50;;;2.10;99.90;;;;;;4985656;28;20501;-76
2021/11/26 08:30:10;;;;;;;69.93;40.13;;;2.10;99.90;;;;;;5002870;28;20478;-77
2021/11/26 08:32:37;;;;;;;75.10;41.03;;;2.20;99.90;;;;;;4989069;28;20466;-76
2021/11/26 08:35:04;;;;;;;63.40;38.27;;;2.20;99.90;;;;;;5000522;28;20453;-76
2021/11/26 08:37:31;;;;;;;66.20;40.27;;;2.20;99.90;;;;;;4981061;28;20522;-76
2021/11/26 08:40:02;;;;;;;74.43;41.47;;;2.20;99.90;;;;;;4987544;28;20494;-75
2021/11/26 08:42:29;;;;;;;72.53;41.50;;;2.20;99.90;;;;;;4981344;28;20463;-75
2021/11/26 08:44:56;;;;;;;64.80;39.93;;;2.30;99.90;;;;;;5003594;28;20476;-76
2021/11/26 08:47:23;;;;;;;63.73;41.37;;;2.30;99.90;;;;;;5000521;28;20467;-76
2021/11/26 08:49:50;;;;;;;61.27;39.17;;;2.40;99.90;;;;;;4989090;28;20443;-76
2021/11/26 08:52:17;;;;;;;57.77;38.47;;;2.30;99.90;;;;;;5000381;28;20501;-76
2021/11/26 08:54:43;;;;;;;64.40;39.20;;;2.40;99.90;;;;;;4982795;28;20514;-75
2021/11/26 08:57:13;;;;;;;65.97;39.57;;;2.40;99.90;;;;;;4987300;28;20437;-75
2021/11/26 08:59:40;;;;;;;61.77;37.67;;;2.50;99.90;;;;;;4993364;28;20955;-76
2021/11/26 09:02:06;;;;;;;54.63;36.43;;;2.50;99.90;;;;;;4991349;28;20525;-76
2021/11/26 09:04:33;;;;;;;60.33;38.57;;;2.50;99.90;;;;;;4985144;28;20989;-76
2021/11/26 09:07:00;;;;;;;61.30;39.47;;;2.60;99.90;;;;;;4988419;28;20440;-75
2021/11/26 09:09:27;;;;;;;59.30;38.33;;;2.50;99.90;;;;;;4986012;28;20460;-75
2021/11/26 09:11:54;;;;;;;62.47;39.97;;;2.60;99.90;;;;;;4985829;28;20444;-78
2021/11/26 09:14:22;;;;;;;60.60;38.83;;;2.70;99.90;;;;;;5024584;28;20440;-76
2021/11/26 09:16:49;;;;;;;60.83;39.77;;;2.80;99.90;;;;;;5002179;28;20982;-76
2021/11/26 09:19:16;;;;;;;61.47;38.60;;;2.90;99.90;;;;;;4991843;28;20558;-75
2021/11/26 09:21:43;;;;;;;54.80;37.10;;;3.00;99.90;;;;;;4989791;28;20231;-76
2021/11/26 09:24:10;;;;;;;54.33;36.73;;;3.10;99.90;;;;;;4983525;28;20466;-76
2021/11/26 09:26:38;;;;;;;54.23;36.53;;;3.10;99.90;;;;;;5007030;28;20226;-76
2021/11/26 09:29:05;;;;;;;49.03;35.37;;;3.20;99.90;;;;;;4983455;28;20458;-76
2021/11/26 09:31:33;;;;;;;53.93;34.27;;;3.20;99.90;;;;;;5008727;28;20523;-76
2021/11/26 09:34:01;;;;;;;54.80;37.53;;;3.30;99.90;;;;;;5000781;28;20625;-75
2021/11/26 09:36:29;;;;;;;51.07;34.60;;;3.40;99.90;;;;;;4993236;28;20543;-76
2021/11/26 09:38:55;;;;;;;55.83;36.30;;;3.40;99.90;;;;;;4988011;28;20536;-76
2021/11/26 09:41:22;;;;;;;50.37;36.57;;;3.40;99.90;;;;;;4986358;28;20208;-76
2021/11/26 09:43:50;;;;;;;51.40;34.70;;;3.50;99.90;;;;;;4990025;28;20483;-75
2021/11/26 09:46:23;;;;;;;46.73;32.63;;;3.50;99.90;;;;;;5017718;28;20205;-76
2021/11/26 09:48:51;;;;;;;45.30;31.93;;;3.60;99.90;;;;;;4990611;28;20209;-76
2021/11/26 09:51:18;;;;;;;47.93;33.97;;;3.60;99.90;;;;;;4985908;28;20254;-76
2021/11/26 09:53:45;;;;;;;47.03;32.53;;;3.70;99.90;;;;;;5000938;28;20292;-76
2021/11/26 09:56:13;;;;;;;48.97;31.33;;;3.70;99.90;;;;;;5016309;28;20252;-76
2021/11/26 09:58:40;;;;;;;44.30;32.07;;;3.80;99.90;;;;;;4986494;28;20209;-76
2021/11/26 10:01:08;;;;;;;48.83;32.50;;;3.90;99.90;;;;;;5003299;28;20272;-75
2021/11/26 10:03:41;;;;;;;43.37;30.77;;;3.90;99.90;;;;;;5002324;28;20221;-76
2021/11/26 10:06:25;;;;;;;44.80;31.43;;;4.00;99.90;;;;;;4990968;28;20701;-75
2021/11/26 10:09:03;;;;;;;49.20;32.60;;;4.00;99.90;;;;;;5020262;28;20205;-76
2021/11/26 10:11:32;;;;;;;45.97;32.80;;;4.00;99.90;;;;;;5017325;28;20272;-76
2021/11/26 10:13:59;;;;;;;46.23;33.33;;;4.00;99.90;;;;;;4978809;28;20249;-76
2021/11/26 10:16:26;;;;;;;47.93;33.07;;;4.10;99.90;;;;;;4989630;28;20245;-75
2021/11/26 10:18:54;;;;;;;48.03;33.50;;;4.00;99.90;;;;;;5005340;28;20209;-76
2021/11/26 10:21:28;;;;;;;48.73;32.97;;;4.10;99.90;;;;;;4992630;28;20218;-76
2021/11/26 10:23:55;;;;;;;45.17;30.97;;;4.00;99.90;;;;;;4999555;28;20259;-75
2021/11/26 10:26:24;;;;;;;48.27;31.33;;;4.00;99.90;;;;;;5002432;28;20670;-75
2021/11/26 10:28:54;;;;;;;47.57;32.60;;;4.00;99.90;;;;;;4986047;28;20208;-76
2021/11/26 10:31:23;;;;;;;46.53;32.33;;;4.00;99.90;;;;;;4987002;28;20197;-76
2021/11/26 10:33:52;;;;;;;46.00;31.13;;;4.00;99.90;;;;;;5003163;28;20230;-76
2021/11/26 10:36:19;;;;;;;48.20;30.80;;;4.00;99.90;;;;;;4988944;28;20201;-76
2021/11/26 10:38:47;;;;;;;43.87;31.00;;;4.00;99.90;;;;;;4986927;28;20740;-78
2021/11/26 10:41:18;;;;;;;40.77;31.17;;;4.10;99.90;;;;;;4990111;28;20201;-76
2021/11/26 10:43:52;;;;;;;40.77;29.33;;;4.10;99.90;;;;;;5004005;28;20218;-76
2021/11/26 10:46:45;;;;;;;41.33;29.27;;;4.20;99.90;;;;;;4988521;28;20205;-75
2021/11/26 11:00:21;;;;;;;34.10;26.13;;;4.10;99.90;;;;;;4985305;28;20252;-76
2021/11/26 11:02:52;;;;;;;32.27;26.03;;;4.10;99.90;;;;;;4987674;28;20225;-77
2021/11/26 11:05:26;;;;;;;40.17;27.60;;;4.20;99.90;;;;;;4988067;28;20776;-77
2021/11/26 11:07:53;;;;;;;33.73;26.07;;;4.20;99.90;;;;;;4988419;28;20202;-77
2021/11/26 11:10:32;;;;;;;35.67;26.60;;;4.30;99.90;;;;;;4991915;28;20223;-77
2021/11/26 11:13:08;;;;;;;33.97;26.13;;;4.20;99.90;;;;;;4989085;28;20714;-78
2021/11/26 11:15:36;;;;;;;28.73;23.63;;;4.20;99.90;;;;;;5017158;28;20577;-78
2021/11/26 11:18:03;;;;;;;27.33;23.60;;;4.20;99.90;;;;;;4985678;28;20205;-77
2021/11/26 11:20:30;;;;;;;30.47;24.77;;;4.30;99.90;;;;;;4984895;28;20201;-76
2021/11/26 11:22:58;;;;;;;27.37;24.10;;;4.20;99.90;;;;;;4988296;28;20272;-75
2021/11/26 11:25:27;;;;;;;31.00;24.40;;;4.30;99.90;;;;;;4973228;28;20214;-76
2021/11/26 11:27:59;;;;;;;29.27;23.90;;;4.30;99.90;;;;;;4972776;28;20200;-77
2021/11/26 11:30:26;;;;;;;29.00;24.63;;;4.20;99.90;;;;;;4981407;28;20189;-75
2021/11/26 11:32:53;;;;;;;32.73;26.13;;;4.30;99.90;;;;;;4987936;28;20213;-76
2021/11/26 11:35:22;;;;;;;29.80;24.23;;;4.30;99.90;;;;;;4984325;28;20328;-75
2021/11/26 11:37:52;;;;;;;32.23;26.00;;;4.20;99.90;;;;;;4987998;28;20360;-76
2021/11/26 11:40:27;;;;;;;33.57;26.07;;;4.20;99.90;;;;;;4982040;28;20337;-76
2021/11/26 11:43:08;;;;;;;30.23;25.90;;;4.20;99.90;;;;;;4971874;28;20228;-75
2021/11/26 11:45:36;;;;;;;32.50;24.73;;;4.20;99.90;;;;;;4979579;28;20219;-75
2021/11/26 11:48:04;;;;;;;33.97;25.60;;;4.20;99.90;;;;;;4984248;28;20240;-75
2021/11/26 11:50:32;;;;;;;32.80;27.13;;;4.20;99.90;;;;;;4988563;28;20197;-75
2021/11/26 11:53:02;;;;;;;34.77;26.40;;;4.20;99.90;;;;;;4999294;28;20225;-76
2021/11/26 11:55:31;;;;;;;31.03;25.43;;;4.20;99.90;;;;;;4972548;28;20612;-76
2021/11/26 11:58:12;;;;;;;32.83;26.20;;;4.20;99.90;;;;;;4973256;28;20225;-76
2021/11/26 12:00:41;;;;;;;34.63;26.73;;;4.30;99.90;;;;;;4972629;28;20209;-76
2021/11/26 12:03:10;;;;;;;36.47;27.43;;;4.20;99.90;;;;;;4972360;28;20245;-76
2021/11/26 12:05:38;;;;;;;32.43;26.03;;;4.20;99.90;;;;;;4984430;28;20217;-76
2021/11/26 12:08:08;;;;;;;31.80;25.07;;;4.20;99.90;;;;;;4976807;28;20209;-76
2021/11/26 12:10:46;;;;;;;36.90;25.70;;;4.20;99.90;;;;;;4992120;28;20224;-76
2021/11/26 12:13:28;;;;;;;26.80;23.03;;;4.20;99.90;;;;;;4984633;28;20225;-76
2021/11/26 12:16:06;;;;;;;30.47;25.60;;;4.20;99.90;;;;;;4967548;28;20204;-76
2021/11/26 12:18:44;;;;;;;32.37;24.97;;;4.20;99.90;;;;;;4972064;28;20260;-76
2021/11/26 12:21:12;;;;;;;28.40;23.60;;;4.20;99.90;;;;;;4972475;28;20670;-76
2021/11/26 12:23:52;;;;;;;29.77;24.20;;;4.20;99.90;;;;;;4972130;28;20252;-76
2021/11/26 12:26:22;;;;;;;28.33;23.70;;;4.10;99.90;;;;;;4973091;28;20196;-75
2021/11/26 12:28:54;;;;;;;29.67;25.00;;;4.10;99.90;;;;;;4972350;28;20620;-75
2021/11/26 12:31:28;;;;;;;34.63;25.20;;;4.10;99.90;;;;;;4990914;28;20201;-77
2021/11/26 12:34:01;;;;;;;28.10;24.77;;;4.10;99.90;;;;;;4987584;28;20226;-76
2021/11/26 12:36:38;;;;;;;32.00;25.90;;;4.10;99.90;;;;;;4982393;28;20689;-76
2021/11/26 12:39:08;;;;;;;28.80;23.63;;;4.10;99.90;;;;;;4990141;28;20227;-76
2021/11/26 12:41:36;;;;;;;27.97;23.70;;;4.10;99.90;;;;;;4999084;28;20256;-76
2021/11/26 12:44:06;;;;;;;31.13;24.13;;;4.20;99.90;;;;;;4990654;28;20749;-76
2021/11/26 12:46:35;;;;;;;30.80;25.43;;;4.10;99.90;;;;;;4974537;28;20721;-76
2021/11/26 12:49:13;;;;;;;29.97;25.60;;;4.20;99.90;;;;;;5006702;28;20445;-76
2021/11/26 12:51:42;;;;;;;28.03;24.40;;;4.20;99.90;;;;;;4974749;28;21097;-76